createdAt,value
2018-11-02T00:01:32.199Z,32.73
2018-11-02T00:04:03.011Z,22.60
2018-11-02T00:06:34.438Z,26.60
2018-11-02T00:09:06.153Z,20.53
2018-11-02T00:11:37.167Z,29.30
2018-11-02T00:14:08.181Z,23.40
2018-11-02T00:16:39.107Z,32.77
2018-11-02T00:19:10.034Z,22.27
2018-11-02T00:21:40.891Z,29.47
2018-11-02T00:24:11.896Z,26.83
2018-11-02T00:26:42.776Z,20.77
2018-11-02T00:29:13.617Z,25.33
2018-11-02T00:31:44.557Z,29.23
2018-11-02T00:34:15.281Z,33.83
2018-11-02T00:36:46.293Z,24.20
2018-11-02T00:39:17.164Z,24.57
2018-11-02T00:41:48.047Z,26.37
2018-11-02T00:44:19.110Z,24.63
2018-11-02T00:46:49.966Z,16.27
2018-11-02T00:49:21.223Z,28.30
2018-11-02T00:51:52.135Z,16.20
2018-11-02T00:54:23.006Z,17.47
2018-11-02T00:56:53.911Z,18.13
2018-11-02T00:59:24.775Z,25.70
2018-11-02T01:01:55.682Z,15.73
2018-11-02T01:04:26.515Z,19.50
2018-11-02T01:06:57.356Z,17.20
2018-11-02T01:09:28.152Z,20.17
2018-11-02T01:11:59.022Z,15.43
2018-11-02T01:14:29.941Z,19.83
2018-11-02T01:17:00.829Z,17.63
2018-11-02T01:19:33.335Z,14.97
2018-11-02T01:22:05.743Z,17.20
2018-11-02T01:24:36.602Z,11.67
2018-11-02T01:27:07.566Z,18.30
2018-11-02T01:29:38.335Z,19.37
2018-11-02T01:32:09.164Z,11.43
2018-11-02T01:34:40.067Z,16.00
2018-11-02T01:37:10.885Z,16.70
2018-11-02T01:39:41.742Z,14.53
2018-11-02T01:42:12.723Z,14.30
2018-11-02T01:44:43.584Z,15.73
2018-11-02T01:47:14.592Z,17.17
2018-11-02T01:49:45.552Z,14.87
2018-11-02T01:52:16.393Z,11.17
2018-11-02T01:54:47.177Z,17.73
2018-11-02T01:57:18.088Z,21.00
2018-11-02T01:59:49.196Z,11.90
2018-11-02T02:02:20.024Z,11.80
2018-11-02T02:04:50.839Z,14.97
2018-11-02T02:07:21.705Z,11.63
2018-11-02T02:09:52.641Z,10.17
2018-11-02T02:12:23.472Z,19.90
2018-11-02T02:14:54.334Z,12.23
2018-11-02T02:17:25.307Z,10.33
2018-11-02T02:19:56.366Z,10.80
2018-11-02T02:22:27.239Z,13.13
2018-11-02T02:24:58.104Z,19.13
2018-11-02T02:27:29.053Z,14.70
2018-11-02T02:29:59.924Z,11.77
2018-11-02T02:32:30.809Z,8.97
2018-11-02T02:35:01.578Z,11.57
2018-11-02T02:37:32.711Z,9.77
2018-11-02T02:40:03.680Z,9.30
2018-11-02T02:42:34.707Z,7.43
2018-11-02T02:45:06.801Z,9.57
2018-11-02T02:47:38.928Z,32.53
2018-11-02T02:50:14.447Z,15.87
2018-11-02T02:52:45.667Z,10.63
2018-11-02T02:55:16.693Z,11.87
2018-11-02T02:57:47.543Z,14.60
2018-11-02T03:00:18.354Z,16.37
2018-11-02T03:02:49.164Z,14.70
2018-11-02T03:05:19.979Z,15.53
2018-11-02T03:07:50.823Z,18.83
2018-11-02T03:10:21.761Z,13.03
2018-11-02T03:12:52.642Z,13.40
2018-11-02T03:15:23.588Z,12.40
2018-11-02T03:17:54.454Z,12.17
2018-11-02T03:20:25.411Z,11.77
2018-11-02T03:22:56.225Z,12.37
2018-11-02T03:25:27.121Z,10.00
2018-11-02T03:27:57.953Z,9.10
2018-11-02T03:30:28.833Z,9.63
2018-11-02T03:32:59.751Z,9.97
2018-11-02T03:35:30.644Z,7.73
2018-11-02T03:38:01.591Z,9.80
2018-11-02T03:40:32.430Z,10.97
2018-11-02T03:43:03.339Z,9.10
2018-11-02T03:45:34.118Z,11.00
2018-11-02T03:48:05.017Z,9.33
2018-11-02T03:50:35.801Z,11.63
2018-11-02T03:53:06.672Z,10.60
2018-11-02T03:55:37.473Z,6.90
2018-11-02T03:58:08.314Z,10.63
2018-11-02T04:00:40.997Z,9.80
2018-11-02T04:03:11.970Z,12.50
2018-11-02T04:05:42.793Z,7.70
2018-11-02T04:08:13.749Z,11.90
2018-11-02T04:10:44.931Z,8.50
2018-11-02T04:13:15.764Z,9.90
2018-11-02T04:15:47.165Z,8.90
2018-11-02T04:18:18.111Z,9.13
2018-11-02T04:20:49.280Z,8.90
2018-11-02T04:23:20.270Z,11.33
2018-11-02T04:25:51.196Z,10.77
2018-11-02T04:28:22.496Z,8.27
2018-11-02T04:30:53.412Z,10.77
2018-11-02T04:33:24.210Z,6.63
2018-11-02T04:35:55.165Z,7.43
2018-11-02T04:38:26.085Z,8.00
2018-11-02T04:40:57.150Z,9.13
2018-11-02T04:43:28.227Z,9.60
2018-11-02T04:45:59.185Z,8.83
2018-11-02T04:48:30.596Z,6.03
2018-11-02T04:51:01.718Z,12.60
2018-11-02T04:53:33.275Z,6.20
2018-11-02T04:56:04.191Z,8.33
2018-11-02T04:58:35.164Z,10.03
2018-11-02T05:01:06.072Z,12.00
2018-11-02T05:03:36.909Z,9.80
2018-11-02T05:06:07.750Z,8.60
2018-11-02T05:08:38.610Z,9.87
2018-11-02T05:11:09.513Z,6.57
2018-11-02T05:13:40.577Z,8.93
2018-11-02T05:16:11.508Z,12.57
2018-11-02T05:18:42.309Z,8.13
2018-11-02T05:21:13.130Z,7.67
2018-11-02T05:23:43.914Z,11.33
2018-11-02T05:26:14.769Z,6.70
2018-11-02T05:28:45.910Z,10.03
2018-11-02T05:31:16.716Z,8.03
2018-11-02T05:33:47.533Z,6.90
2018-11-02T05:36:18.461Z,12.77
2018-11-02T05:38:49.281Z,9.87
2018-11-02T05:41:20.177Z,8.03
2018-11-02T05:43:51.207Z,12.63
2018-11-02T05:46:22.006Z,12.93
2018-11-02T05:48:53.000Z,10.87
2018-11-02T05:51:23.822Z,9.90
2018-11-02T05:53:54.754Z,9.87
2018-11-02T05:56:25.571Z,9.53
2018-11-02T05:58:56.414Z,12.23
2018-11-02T06:01:27.348Z,9.23
2018-11-02T06:03:58.203Z,10.77
2018-11-02T06:06:29.305Z,8.00
2018-11-02T06:09:00.185Z,12.60
2018-11-02T06:11:31.432Z,10.67
2018-11-02T06:14:02.273Z,14.70
2018-11-02T06:16:33.207Z,8.53
2018-11-02T06:19:04.031Z,10.20
2018-11-02T06:21:34.936Z,10.00
2018-11-02T06:24:05.939Z,8.13
2018-11-02T06:26:36.846Z,9.57
2018-11-02T06:29:07.692Z,6.83
2018-11-02T06:31:38.640Z,11.17
2018-11-02T06:34:09.584Z,12.63
2018-11-02T06:36:40.564Z,15.83
2018-11-02T06:39:11.949Z,24.23
2018-11-02T06:41:42.816Z,12.70
2018-11-02T06:44:13.634Z,12.27
2018-11-02T06:46:44.703Z,16.60
2018-11-02T06:49:16.537Z,29.23
2018-11-02T06:51:47.396Z,25.37
2018-11-02T06:54:18.281Z,15.80
2018-11-02T06:56:49.217Z,25.37
2018-11-02T06:59:20.223Z,28.90
2018-11-02T07:01:51.088Z,25.73
2018-11-02T07:04:22.025Z,24.00
2018-11-02T07:06:52.588Z,23.70
2018-11-02T07:09:23.184Z,28.77
2018-11-02T07:11:54.154Z,33.60
2018-11-02T07:14:24.812Z,23.87
2018-11-02T07:16:55.640Z,24.10
2018-11-02T07:19:26.334Z,21.57
2018-11-02T07:21:56.981Z,27.13
2018-11-02T07:24:27.645Z,28.57
2018-11-02T07:26:58.375Z,28.03
2018-11-02T07:29:29.127Z,27.37
2018-11-02T07:31:59.745Z,28.60
2018-11-02T07:34:30.397Z,26.13
2018-11-02T07:37:01.082Z,32.10
2018-11-02T07:39:34.215Z,27.60
2018-11-02T07:42:05.040Z,24.13
2018-11-02T07:44:41.884Z,25.07
2018-11-02T07:47:12.612Z,21.63
2018-11-02T07:49:43.609Z,21.97
2018-11-02T07:52:14.139Z,29.40
2018-11-02T07:54:45.373Z,20.43
2018-11-02T07:57:15.942Z,20.33
2018-11-02T07:59:46.646Z,28.77
2018-11-02T08:02:17.386Z,18.90
2018-11-02T08:04:48.053Z,28.60
2018-11-02T08:07:18.616Z,23.73
2018-11-02T08:09:49.258Z,20.63
2018-11-02T08:12:19.832Z,22.13
2018-11-02T08:14:50.620Z,24.87
2018-11-02T08:17:21.474Z,21.80
2018-11-02T08:19:52.121Z,34.80
2018-11-02T08:22:22.631Z,34.83
2018-11-02T08:24:54.514Z,56.53
2018-11-02T08:27:25.225Z,33.57
2018-11-02T08:29:56.013Z,37.03
2018-11-02T08:32:26.575Z,42.50
2018-11-02T08:34:57.151Z,37.47
2018-11-02T08:37:27.868Z,29.63
2018-11-02T08:39:58.685Z,23.93
2018-11-02T08:42:29.192Z,21.43
2018-11-02T08:44:59.809Z,24.27
2018-11-02T08:47:30.216Z,22.00
2018-11-02T08:50:00.668Z,22.37
2018-11-02T08:52:31.125Z,14.30
2018-11-02T08:55:01.689Z,17.90
2018-11-02T08:57:32.239Z,17.10
2018-11-02T09:00:03.037Z,21.33
2018-11-02T09:02:33.538Z,18.40
2018-11-02T09:05:04.117Z,19.97
2018-11-02T09:07:34.574Z,18.13
2018-11-02T09:10:06.884Z,20.83
2018-11-02T09:12:38.878Z,33.87
2018-11-02T09:15:09.925Z,12.23
2018-11-02T09:17:41.208Z,12.53
2018-11-02T09:20:12.258Z,14.13
2018-11-02T09:22:43.208Z,17.33
2018-11-02T09:25:14.120Z,14.27
2018-11-02T09:27:45.012Z,16.47
2018-11-02T09:30:17.145Z,15.77
2018-11-02T09:32:48.181Z,11.07
2018-11-02T09:35:18.995Z,13.03
2018-11-02T09:37:50.043Z,24.47
2018-11-02T09:40:21.273Z,20.03
2018-11-02T09:42:52.439Z,15.70
2018-11-02T09:45:23.385Z,16.30
2018-11-02T09:47:54.516Z,14.33
2018-11-02T09:50:25.419Z,9.27
2018-11-02T09:52:56.269Z,16.33
2018-11-02T09:55:27.016Z,18.70
2018-11-02T09:57:57.884Z,20.43
2018-11-02T10:00:29.047Z,15.93
2018-11-02T10:03:00.754Z,13.70
2018-11-02T10:05:31.694Z,14.40
2018-11-02T10:08:02.893Z,23.63
2018-11-02T10:10:33.837Z,16.27
2018-11-02T10:13:04.764Z,18.93
2018-11-02T10:15:35.684Z,16.63
2018-11-02T10:18:06.927Z,17.93
2018-11-02T10:20:37.764Z,15.27
2018-11-02T10:23:09.229Z,16.33
2018-11-02T10:25:40.238Z,15.80
2018-11-02T10:28:11.451Z,21.23
2018-11-02T10:30:42.404Z,18.43
2018-11-02T10:33:14.080Z,17.77
2018-11-02T10:35:45.246Z,16.83
2018-11-02T10:38:16.431Z,15.77
2018-11-02T10:40:53.101Z,11.73
2018-11-02T10:43:24.579Z,12.37
2018-11-02T10:45:59.783Z,13.17
2018-11-02T10:48:31.549Z,14.00
2018-11-02T10:51:02.508Z,10.33
2018-11-02T10:53:33.490Z,13.17
2018-11-02T10:56:04.464Z,12.53
2018-11-02T10:58:35.443Z,16.60
2018-11-02T11:01:11.563Z,13.67
2018-11-02T11:03:42.423Z,8.80
2018-11-02T11:06:13.577Z,17.63
2018-11-02T11:08:45.389Z,18.50
2018-11-02T11:11:16.642Z,13.17
2018-11-02T11:13:48.663Z,16.20
2018-11-02T11:16:19.966Z,13.83
2018-11-02T11:18:51.000Z,19.17
2018-11-02T11:21:22.151Z,15.73
2018-11-02T11:23:53.337Z,22.73
2018-11-02T11:26:24.304Z,14.57
2018-11-02T11:28:55.401Z,15.87
2018-11-02T11:31:26.296Z,14.00
2018-11-02T11:33:57.262Z,17.27
2018-11-02T11:36:28.243Z,16.33
2018-11-02T11:38:59.204Z,20.83
2018-11-02T11:41:30.230Z,15.77
2018-11-02T11:44:01.241Z,23.07
2018-11-02T11:46:32.152Z,15.97
2018-11-02T11:49:03.224Z,15.50
2018-11-02T11:51:34.055Z,15.77
2018-11-02T11:54:05.198Z,19.83
2018-11-02T11:56:36.341Z,20.63
2018-11-02T11:59:07.450Z,16.87
2018-11-02T12:01:38.381Z,13.47
2018-11-02T12:04:10.662Z,13.47
2018-11-02T12:06:41.567Z,9.43
2018-11-02T12:09:12.752Z,15.00
2018-11-02T12:11:43.739Z,10.10
2018-11-02T12:14:14.890Z,13.13
2018-11-02T12:16:46.381Z,17.63
2018-11-02T12:19:17.415Z,11.47
2018-11-02T12:21:48.539Z,14.83
2018-11-02T12:24:19.435Z,24.27
2018-11-02T12:26:50.305Z,10.23
2018-11-02T12:29:21.424Z,13.00
2018-11-02T12:31:52.325Z,14.33
2018-11-02T12:34:23.861Z,12.07
2018-11-02T12:36:54.824Z,18.73
2018-11-02T12:39:25.738Z,12.30
2018-11-02T12:41:56.960Z,15.53
2018-11-02T12:44:27.820Z,14.37
2018-11-02T12:46:58.780Z,11.70
2018-11-02T12:49:29.994Z,13.53
2018-11-02T12:52:00.543Z,13.50
2018-11-02T12:54:31.672Z,19.07
2018-11-02T12:57:02.509Z,8.70
2018-11-02T12:59:33.367Z,10.80
2018-11-02T13:02:04.382Z,11.97
2018-11-02T13:04:35.196Z,15.47
2018-11-02T13:07:06.243Z,12.97
2018-11-02T13:09:37.346Z,12.83
2018-11-02T13:12:09.440Z,18.77
2018-11-02T13:14:40.410Z,11.30
2018-11-02T13:17:11.383Z,10.00
2018-11-02T13:19:42.276Z,12.07
2018-11-02T13:22:13.350Z,11.47
2018-11-02T13:24:44.150Z,11.47
2018-11-02T13:27:15.123Z,11.97
2018-11-02T13:29:46.029Z,13.53
2018-11-02T13:32:16.908Z,15.00
2018-11-02T13:34:47.935Z,12.20
2018-11-02T13:37:19.285Z,11.57
2018-11-02T13:39:50.153Z,10.10
2018-11-02T13:42:21.167Z,11.97
2018-11-02T13:44:52.107Z,8.97
2018-11-02T13:47:23.068Z,13.67
2018-11-02T13:49:53.963Z,13.50
2018-11-02T13:52:24.846Z,25.17
2018-11-02T13:54:55.761Z,24.07
2018-11-02T13:57:26.860Z,18.40
2018-11-02T13:59:57.848Z,18.53
2018-11-02T14:02:28.828Z,23.27
2018-11-02T14:04:59.829Z,20.40
2018-11-02T14:07:30.784Z,22.17
2018-11-02T14:10:01.781Z,20.57
2018-11-02T14:12:32.647Z,22.27
2018-11-02T14:15:03.548Z,16.57
2018-11-02T14:17:34.452Z,13.63
2018-11-02T14:20:06.497Z,17.50
2018-11-02T14:22:37.850Z,19.57
2018-11-02T14:25:12.193Z,18.53
2018-11-02T14:27:43.614Z,15.40
2018-11-02T14:30:16.014Z,17.93
2018-11-02T14:32:48.069Z,16.77
2018-11-02T14:35:18.953Z,20.43
2018-11-02T14:37:49.836Z,26.30
2018-11-02T14:40:20.691Z,16.70
2018-11-02T14:42:51.669Z,14.63
2018-11-02T14:45:22.632Z,24.30
2018-11-02T14:47:53.434Z,19.00
2018-11-02T14:50:24.420Z,15.70
2018-11-02T14:52:55.235Z,18.47
2018-11-02T14:55:26.094Z,23.43
2018-11-02T14:57:57.340Z,17.93
2018-11-02T15:00:28.265Z,17.03
2018-11-02T15:02:59.202Z,18.43
2018-11-02T15:05:30.176Z,16.87
2018-11-02T15:08:01.228Z,22.67
2018-11-02T15:10:32.107Z,19.97
2018-11-02T15:13:03.038Z,21.00
2018-11-02T15:15:34.047Z,20.97
2018-11-02T15:18:04.960Z,24.93
2018-11-02T15:20:35.862Z,27.03
2018-11-02T15:23:07.220Z,17.27
2018-11-02T15:25:38.081Z,19.83
2018-11-02T15:28:08.977Z,16.23
2018-11-02T15:30:39.862Z,24.73
2018-11-02T15:33:10.741Z,21.27
2018-11-02T15:35:41.712Z,19.83
2018-11-02T15:38:12.600Z,16.03
2018-11-02T15:40:43.600Z,19.83
2018-11-02T15:43:14.545Z,17.53
2018-11-02T15:45:45.492Z,29.93
2018-11-02T15:48:16.663Z,21.60
2018-11-02T15:50:47.831Z,24.73
2018-11-02T15:53:18.850Z,18.53
2018-11-02T15:55:49.691Z,24.57
2018-11-02T15:58:20.848Z,24.47
2018-11-02T16:00:51.787Z,23.33
2018-11-02T16:03:22.945Z,17.77
2018-11-02T16:05:53.925Z,19.67
2018-11-02T16:08:24.987Z,18.73
2018-11-02T16:10:56.088Z,20.17
2018-11-02T16:13:27.089Z,19.97
2018-11-02T16:15:57.940Z,21.63
2018-11-02T16:18:29.701Z,22.17
2018-11-02T16:21:00.626Z,27.63
2018-11-02T16:23:31.501Z,24.70
2018-11-02T16:26:02.405Z,28.00
2018-11-02T16:28:33.291Z,25.10
2018-11-02T16:31:04.338Z,35.17
2018-11-02T16:33:35.292Z,25.00
2018-11-02T16:36:06.915Z,33.83
2018-11-02T16:38:38.422Z,25.63
2018-11-02T16:41:09.382Z,28.60
2018-11-02T16:43:41.306Z,27.70
2018-11-02T16:46:12.550Z,28.77
2018-11-02T16:48:43.407Z,24.93
2018-11-02T16:51:14.506Z,32.77
2018-11-02T16:53:45.490Z,36.17
2018-11-02T16:56:16.384Z,18.47
2018-11-02T16:58:47.262Z,17.77
2018-11-02T17:01:18.921Z,18.33
2018-11-02T17:03:50.022Z,15.13
2018-11-02T17:06:21.041Z,14.23
2018-11-02T17:08:52.220Z,15.70
2018-11-02T17:11:23.229Z,19.37
2018-11-02T17:13:54.058Z,20.97
2018-11-02T17:16:24.903Z,22.40
2018-11-02T17:18:55.872Z,18.97
2018-11-02T17:21:26.754Z,22.63
2018-11-02T17:23:58.069Z,28.43
2018-11-02T17:26:29.445Z,29.97
2018-11-02T17:29:00.487Z,26.87
2018-11-02T17:31:31.610Z,33.17
2018-11-02T17:34:02.519Z,29.97
2018-11-02T17:36:33.747Z,29.53
2018-11-02T17:39:06.765Z,39.63
2018-11-02T17:41:38.177Z,35.50
2018-11-02T17:44:09.586Z,35.67
2018-11-02T17:46:40.729Z,39.47
2018-11-02T17:49:11.714Z,39.37
2018-11-02T17:51:42.706Z,41.30
2018-11-02T17:54:13.691Z,39.40
2018-11-02T17:56:45.788Z,39.23
2018-11-02T17:59:16.878Z,43.20
2018-11-02T18:01:47.749Z,42.80
2018-11-02T18:04:18.734Z,51.23
2018-11-02T18:06:49.771Z,37.20
2018-11-02T18:09:21.015Z,39.80
2018-11-02T18:11:52.326Z,38.93
2018-11-02T18:14:23.170Z,38.17
2018-11-02T18:16:55.000Z,37.37
2018-11-02T18:19:25.945Z,40.53
2018-11-02T18:21:56.925Z,42.47
2018-11-02T18:24:27.851Z,51.00
2018-11-02T18:26:58.756Z,49.93
2018-11-02T18:29:29.716Z,44.33
2018-11-02T18:32:00.679Z,47.53
2018-11-02T18:34:31.729Z,41.03
2018-11-02T18:37:02.662Z,43.40
2018-11-02T18:39:33.972Z,42.87
2018-11-02T18:42:04.995Z,53.23
2018-11-02T18:44:35.926Z,41.53
2018-11-02T18:47:07.428Z,42.50
2018-11-02T18:49:38.542Z,76.03
2018-11-02T18:52:09.491Z,48.70
2018-11-02T18:54:40.541Z,62.37
2018-11-02T18:57:11.610Z,44.33
2018-11-02T18:59:42.900Z,44.97
2018-11-02T19:02:13.869Z,46.13
2018-11-02T19:04:45.178Z,57.87
2018-11-02T19:07:16.569Z,61.07
2018-11-02T19:09:47.607Z,53.17
2018-11-02T19:12:18.675Z,46.70
2018-11-02T19:14:49.879Z,50.07
2018-11-02T19:17:20.813Z,45.63
2018-11-02T19:19:51.761Z,42.37
2018-11-02T19:22:22.876Z,45.63
2018-11-02T19:24:54.515Z,48.30
2018-11-02T19:27:25.891Z,47.07
2018-11-02T19:29:57.039Z,46.47
2018-11-02T19:32:28.205Z,44.83
2018-11-02T19:34:59.541Z,52.77
2018-11-02T19:37:30.499Z,46.77
2018-11-02T19:40:01.512Z,49.77
2018-11-02T19:42:32.988Z,54.33
2018-11-02T19:45:04.154Z,51.50
2018-11-02T19:47:40.077Z,47.57
2018-11-02T19:50:13.457Z,50.27
2018-11-02T19:52:44.486Z,48.57
2018-11-02T19:55:15.541Z,47.93
2018-11-02T19:57:46.435Z,54.97
2018-11-02T20:00:18.198Z,45.50
2018-11-02T20:02:49.664Z,44.13
2018-11-02T20:05:21.816Z,50.17
2018-11-02T20:07:52.807Z,50.00
2018-11-02T20:10:23.901Z,51.13
2018-11-02T20:12:55.205Z,45.13
2018-11-02T20:15:26.770Z,49.07
2018-11-02T20:17:57.768Z,50.60
2018-11-02T20:20:28.750Z,53.23
2018-11-02T20:22:59.822Z,44.27
2018-11-02T20:25:31.122Z,56.43
2018-11-02T20:28:02.084Z,51.00
2018-11-02T20:30:33.163Z,52.40
2018-11-02T20:33:04.085Z,56.40
2018-11-02T20:35:34.954Z,70.20
2018-11-02T20:38:05.889Z,63.10
2018-11-02T20:40:36.857Z,56.67
2018-11-02T20:43:07.902Z,50.70
2018-11-02T20:45:38.873Z,56.37
2018-11-02T20:48:10.011Z,59.17
2018-11-02T20:50:41.079Z,54.43
2018-11-02T20:53:12.032Z,55.77
2018-11-02T20:55:42.975Z,50.97
2018-11-02T20:58:13.917Z,54.40
2018-11-02T21:00:44.882Z,63.17
2018-11-02T21:03:16.192Z,52.20
2018-11-02T21:05:47.262Z,61.00
2018-11-02T21:08:18.375Z,74.33
2018-11-02T21:10:49.330Z,63.73
2018-11-02T21:13:20.251Z,69.40
2018-11-02T21:15:51.250Z,65.30
2018-11-02T21:18:22.252Z,65.70
2018-11-02T21:20:53.616Z,66.53
2018-11-02T21:23:24.523Z,61.80
2018-11-02T21:25:55.422Z,60.43
2018-11-02T21:28:26.495Z,60.60
2018-11-02T21:30:57.470Z,63.23
2018-11-02T21:33:28.447Z,66.30
2018-11-02T21:36:00.388Z,64.67
2018-11-02T21:38:31.477Z,65.73
2018-11-02T21:41:02.472Z,65.03
2018-11-02T21:43:33.426Z,71.57
2018-11-02T21:46:04.725Z,69.57
2018-11-02T21:48:35.647Z,95.37
2018-11-02T21:51:07.151Z,82.57
2018-11-02T21:53:38.130Z,69.53
2018-11-02T21:56:09.079Z,74.23
2018-11-02T21:58:40.049Z,76.93
2018-11-02T22:01:10.928Z,75.07
2018-11-02T22:03:41.900Z,69.97
2018-11-02T22:06:12.817Z,69.67
2018-11-02T22:08:43.779Z,69.90
2018-11-02T22:11:14.756Z,115.57
2018-11-02T22:13:45.732Z,131.30
2018-11-02T22:16:17.480Z,83.40
2018-11-02T22:18:48.499Z,80.70
2018-11-02T22:21:19.443Z,63.27
2018-11-02T22:23:50.290Z,58.33
2018-11-02T22:26:21.323Z,57.10
2018-11-02T22:28:52.369Z,60.60
2018-11-02T22:31:23.257Z,67.57
2018-11-02T22:33:54.178Z,65.83
2018-11-02T22:36:25.309Z,63.63
2018-11-02T22:38:56.454Z,63.90
2018-11-02T22:41:27.551Z,67.03
2018-11-02T22:43:58.730Z,66.80
2018-11-02T22:46:30.023Z,70.60
2018-11-02T22:49:00.884Z,70.57
2018-11-02T22:51:31.885Z,73.13
2018-11-02T22:54:03.181Z,70.63
2018-11-02T22:56:34.322Z,77.03
2018-11-02T22:59:05.398Z,73.70
2018-11-02T23:01:37.133Z,83.63
2018-11-02T23:04:08.132Z,78.87
2018-11-02T23:06:38.988Z,79.67
2018-11-02T23:09:10.750Z,70.60
2018-11-02T23:11:41.689Z,83.80
2018-11-02T23:14:12.709Z,72.87
2018-11-02T23:16:43.902Z,69.13
2018-11-02T23:19:16.617Z,74.43
2018-11-02T23:21:47.628Z,79.30
2018-11-02T23:24:19.136Z,76.83
2018-11-02T23:26:50.063Z,72.27
2018-11-02T23:29:21.048Z,70.10
2018-11-02T23:31:52.042Z,68.90
2018-11-02T23:34:23.070Z,65.17
2018-11-02T23:36:53.883Z,64.13
2018-11-02T23:39:24.754Z,74.60
2018-11-02T23:41:55.594Z,104.63
2018-11-02T23:44:26.423Z,71.20
2018-11-02T23:46:57.280Z,65.13
2018-11-02T23:49:28.150Z,73.23
2018-11-02T23:51:59.060Z,70.73
2018-11-02T23:54:30.195Z,67.07
2018-11-02T23:57:01.212Z,65.13
2018-11-02T23:59:32.120Z,68.63
